sensor_id;sensor_type;location;lat;lon;timestamp;pressure;altitude;pressure_sealevel;temperature;humidity
70009;BME280;59542;37.950;-122.338;2023-02-18T00:00:39;101585.16;;;16.75;20.86
70009;BME280;59542;37.950;-122.338;2023-02-18T00:03:05;101582.59;;;16.61;21.21
70009;BME280;59542;37.950;-122.338;2023-02-18T00:05:31;101580.06;;;16.48;21.60
70009;BME280;59542;37.950;-122.338;2023-02-18T00:07:56;101583.53;;;16.55;21.74
70009;BME280;59542;37.950;-122.338;2023-02-18T00:10:22;101582.59;;;16.43;21.71
70009;BME280;59542;37.950;-122.338;2023-02-18T00:12:48;101572.72;;;16.55;21.37
70009;BME280;59542;37.950;-122.338;2023-02-18T00:15:14;101579.03;;;16.49;21.80
70009;BME280;59542;37.950;-122.338;2023-02-18T00:17:40;101580.75;;;16.44;21.84
70009;BME280;59542;37.950;-122.338;2023-02-18T00:20:06;101571.59;;;16.45;22.33
70009;BME280;59542;37.950;-122.338;2023-02-18T00:22:32;101570.91;;;16.31;21.99
70009;BME280;59542;37.950;-122.338;2023-02-18T00:24:58;101573.25;;;16.46;21.97
70009;BME280;59542;37.950;-122.338;2023-02-18T00:27:24;101568.91;;;16.45;21.51
70009;BME280;59542;37.950;-122.338;2023-02-18T00:29:50;101574.28;;;16.26;21.57
70009;BME280;59542;37.950;-122.338;2023-02-18T00:32:15;101565.91;;;16.34;22.04
70009;BME280;59542;37.950;-122.338;2023-02-18T00:34:41;101563.09;;;16.41;22.17
70009;BME280;59542;37.950;-122.338;2023-02-18T00:37:07;101565.56;;;16.43;22.02
70009;BME280;59542;37.950;-122.338;2023-02-18T00:39:33;101558.16;;;16.86;21.48
70009;BME280;59542;37.950;-122.338;2023-02-18T00:41:59;101569.41;;;16.72;21.53
70009;BME280;59542;37.950;-122.338;2023-02-18T00:44:25;101560.66;;;16.88;21.08
70009;BME280;59542;37.950;-122.338;2023-02-18T00:46:51;101558.97;;;16.57;22.06
70009;BME280;59542;37.950;-122.338;2023-02-18T00:49:17;101558.63;;;16.35;21.48
70009;BME280;59542;37.950;-122.338;2023-02-18T00:51:43;101561.41;;;16.28;22.30
70009;BME280;59542;37.950;-122.338;2023-02-18T00:54:09;101556.09;;;16.22;22.77
70009;BME280;59542;37.950;-122.338;2023-02-18T00:56:35;101561.41;;;16.28;21.91
70009;BME280;59542;37.950;-122.338;2023-02-18T00:59:01;101558.38;;;16.36;21.94
70009;BME280;59542;37.950;-122.338;2023-02-18T01:01:27;101563.69;;;16.43;22.49
70009;BME280;59542;37.950;-122.338;2023-02-18T01:03:53;101557.38;;;16.68;22.49
70009;BME280;59542;37.950;-122.338;2023-02-18T01:06:19;101557.94;;;16.70;21.77
70009;BME280;59542;37.950;-122.338;2023-02-18T01:08:46;101556.28;;;16.39;22.50
70009;BME280;59542;37.950;-122.338;2023-02-18T01:11:12;101559.81;;;16.39;22.73
70009;BME280;59542;37.950;-122.338;2023-02-18T01:13:38;101568.78;;;16.21;22.46
70009;BME280;59542;37.950;-122.338;2023-02-18T01:16:04;101565.44;;;16.56;22.08
70009;BME280;59542;37.950;-122.338;2023-02-18T01:18:30;101566.88;;;16.88;24.25
70009;BME280;59542;37.950;-122.338;2023-02-18T01:20:56;101569.41;;;16.72;27.35
70009;BME280;59542;37.950;-122.338;2023-02-18T01:23:22;101567.06;;;16.57;28.44
70009;BME280;59542;37.950;-122.338;2023-02-18T01:25:48;101571.09;;;16.18;28.89
70009;BME280;59542;37.950;-122.338;2023-02-18T01:28:14;101569.72;;;15.90;29.22
70009;BME280;59542;37.950;-122.338;2023-02-18T01:30:40;101559.97;;;15.89;29.45
70009;BME280;59542;37.950;-122.338;2023-02-18T01:33:06;101564.66;;;15.75;29.12
70009;BME280;59542;37.950;-122.338;2023-02-18T01:35:32;101565.22;;;15.84;30.16
70009;BME280;59542;37.950;-122.338;2023-02-18T01:37:58;101571.88;;;15.81;28.67
70009;BME280;59542;37.950;-122.338;2023-02-18T01:40:25;101569.47;;;15.92;27.41
70009;BME280;59542;37.950;-122.338;2023-02-18T01:42:52;101570.97;;;15.88;26.53
70009;BME280;59542;37.950;-122.338;2023-02-18T01:48:00;101571.84;;;15.63;26.65
70009;BME280;59542;37.950;-122.338;2023-02-18T01:50:26;101564.59;;;15.57;27.25
70009;BME280;59542;37.950;-122.338;2023-02-18T01:52:52;101572.47;;;15.58;27.20
70009;BME280;59542;37.950;-122.338;2023-02-18T01:55:18;101577.50;;;15.55;27.30
70009;BME280;59542;37.950;-122.338;2023-02-18T01:57:44;101583.88;;;15.36;27.32
70009;BME280;59542;37.950;-122.338;2023-02-18T02:00:11;101581.66;;;15.26;27.13
70009;BME280;59542;37.950;-122.338;2023-02-18T02:02:38;101581.94;;;15.18;27.31
70009;BME280;59542;37.950;-122.338;2023-02-18T02:05:05;101581.81;;;15.06;27.86
70009;BME280;59542;37.950;-122.338;2023-02-18T02:07:31;101591.59;;;15.00;28.71
70009;BME280;59542;37.950;-122.338;2023-02-18T02:09:57;101587.09;;;14.88;29.00
70009;BME280;59542;37.950;-122.338;2023-02-18T02:25:38;101596.88;;;14.24;30.64
70009;BME280;59542;37.950;-122.338;2023-02-18T02:28:28;101597.88;;;14.36;31.07
70009;BME280;59542;37.950;-122.338;2023-02-18T02:39:02;101591.81;;;13.50;32.05
70009;BME280;59542;37.950;-122.338;2023-02-18T02:46:34;101609.78;;;13.29;33.10
70009;BME280;59542;37.950;-122.338;2023-02-18T02:54:26;101616.50;;;12.85;33.88
70009;BME280;59542;37.950;-122.338;2023-02-18T02:57:36;101624.56;;;12.92;34.83
70009;BME280;59542;37.950;-122.338;2023-02-18T02:59:57;101630.28;;;12.69;35.05
70009;BME280;59542;37.950;-122.338;2023-02-18T03:05:07;101638.44;;;12.48;35.26
70009;BME280;59542;37.950;-122.338;2023-02-18T03:18:02;101644.44;;;12.15;37.67
70009;BME280;59542;37.950;-122.338;2023-02-18T03:20:36;101643.28;;;11.96;38.62
70009;BME280;59542;37.950;-122.338;2023-02-18T03:23:06;101646.44;;;11.78;41.16
70009;BME280;59542;37.950;-122.338;2023-02-18T03:25:33;101642.66;;;11.94;41.34
70009;BME280;59542;37.950;-122.338;2023-02-18T03:28:01;101633.66;;;11.59;42.17
70009;BME280;59542;37.950;-122.338;2023-02-18T03:30:50;101637.63;;;11.63;42.04
70009;BME280;59542;37.950;-122.338;2023-02-18T03:33:16;101637.19;;;11.59;42.51
70009;BME280;59542;37.950;-122.338;2023-02-18T03:35:42;101639.44;;;11.56;41.72
70009;BME280;59542;37.950;-122.338;2023-02-18T03:40:53;101646.50;;;11.63;42.31
70009;BME280;59542;37.950;-122.338;2023-02-18T03:43:19;101646.44;;;11.57;42.44
70009;BME280;59542;37.950;-122.338;2023-02-18T03:45:45;101651.19;;;11.33;43.15
70009;BME280;59542;37.950;-122.338;2023-02-18T03:48:11;101649.91;;;11.29;42.72
70009;BME280;59542;37.950;-122.338;2023-02-18T03:50:37;101650.28;;;11.26;43.02
70009;BME280;59542;37.950;-122.338;2023-02-18T03:53:03;101649.38;;;11.19;43.10
70009;BME280;59542;37.950;-122.338;2023-02-18T03:55:29;101656.00;;;11.02;43.28
70009;BME280;59542;37.950;-122.338;2023-02-18T03:57:54;101660.59;;;11.08;43.36
70009;BME280;59542;37.950;-122.338;2023-02-18T04:00:20;101659.22;;;10.61;44.61
70009;BME280;59542;37.950;-122.338;2023-02-18T04:02:47;101664.38;;;10.63;44.01
70009;BME280;59542;37.950;-122.338;2023-02-18T04:05:12;101664.25;;;10.71;43.50
70009;BME280;59542;37.950;-122.338;2023-02-18T04:07:38;101666.50;;;10.67;43.56
70009;BME280;59542;37.950;-122.338;2023-02-18T04:10:04;101661.53;;;10.35;44.68
70009;BME280;59542;37.950;-122.338;2023-02-18T04:12:30;101660.06;;;10.47;44.73
70009;BME280;59542;37.950;-122.338;2023-02-18T04:14:56;101661.69;;;10.48;44.94
70009;BME280;59542;37.950;-122.338;2023-02-18T04:17:22;101662.63;;;10.70;44.52
70009;BME280;59542;37.950;-122.338;2023-02-18T04:19:48;101664.31;;;10.56;44.47
70009;BME280;59542;37.950;-122.338;2023-02-18T04:22:14;101663.47;;;10.55;44.57
70009;BME280;59542;37.950;-122.338;2023-02-18T04:24:40;101665.13;;;10.42;44.54
70009;BME280;59542;37.950;-122.338;2023-02-18T04:27:06;101658.47;;;10.38;44.71
70009;BME280;59542;37.950;-122.338;2023-02-18T04:29:31;101662.81;;;10.24;44.88
70009;BME280;59542;37.950;-122.338;2023-02-18T04:31:57;101668.16;;;10.24;45.11
70009;BME280;59542;37.950;-122.338;2023-02-18T04:34:23;101674.16;;;10.41;45.08
70009;BME280;59542;37.950;-122.338;2023-02-18T04:36:49;101675.34;;;10.38;44.28
70009;BME280;59542;37.950;-122.338;2023-02-18T04:39:15;101683.81;;;10.12;44.46
70009;BME280;59542;37.950;-122.338;2023-02-18T04:41:41;101678.63;;;9.96;45.04
70009;BME280;59542;37.950;-122.338;2023-02-18T04:44:06;101680.03;;;10.07;45.09
70009;BME280;59542;37.950;-122.338;2023-02-18T04:46:32;101686.31;;;9.53;45.99
70009;BME280;59542;37.950;-122.338;2023-02-18T04:48:58;101694.50;;;9.51;45.84
70009;BME280;59542;37.950;-122.338;2023-02-18T04:51:24;101699.34;;;9.56;45.64
70009;BME280;59542;37.950;-122.338;2023-02-18T04:53:50;101691.00;;;9.51;46.36
70009;BME280;59542;37.950;-122.338;2023-02-18T04:56:15;101691.00;;;9.51;45.72
70009;BME280;59542;37.950;-122.338;2023-02-18T04:58:41;101690.66;;;9.00;46.65
70009;BME280;59542;37.950;-122.338;2023-02-18T05:01:07;101688.59;;;9.10;46.44
70009;BME280;59542;37.950;-122.338;2023-02-18T05:03:33;101683.91;;;9.12;46.38
70009;BME280;59542;37.950;-122.338;2023-02-18T05:05:59;101690.09;;;9.13;46.61
70009;BME280;59542;37.950;-122.338;2023-02-18T05:08:25;101682.56;;;9.16;46.24
70009;BME280;59542;37.950;-122.338;2023-02-18T05:10:51;101681.44;;;9.11;46.26
70009;BME280;59542;37.950;-122.338;2023-02-18T05:13:17;101682.66;;;9.00;46.47
70009;BME280;59542;37.950;-122.338;2023-02-18T05:15:42;101678.28;;;8.99;46.37
70009;BME280;59542;37.950;-122.338;2023-02-18T05:18:08;101680.97;;;8.99;46.27
70009;BME280;59542;37.950;-122.338;2023-02-18T05:20:34;101692.34;;;8.93;46.70
70009;BME280;59542;37.950;-122.338;2023-02-18T05:23:00;101686.66;;;8.96;46.15
70009;BME280;59542;37.950;-122.338;2023-02-18T05:25:26;101689.91;;;9.14;45.62
70009;BME280;59542;37.950;-122.338;2023-02-18T05:27:52;101683.00;;;8.97;45.84
70009;BME280;59542;37.950;-122.338;2023-02-18T05:30:18;101692.34;;;8.93;46.12
70009;BME280;59542;37.950;-122.338;2023-02-18T05:32:44;101694.50;;;8.58;46.67
70009;BME280;59542;37.950;-122.338;2023-02-18T05:35:09;101692.47;;;8.60;46.82
70009;BME280;59542;37.950;-122.338;2023-02-18T05:37:35;101689.16;;;8.58;46.72
70009;BME280;59542;37.950;-122.338;2023-02-18T05:40:02;101693.66;;;8.58;46.59
70009;BME280;59542;37.950;-122.338;2023-02-18T05:42:28;101691.81;;;8.58;46.75
70009;BME280;59542;37.950;-122.338;2023-02-18T05:44:53;101693.16;;;8.54;46.67
70009;BME280;59542;37.950;-122.338;2023-02-18T05:47:19;101684.50;;;8.52;46.67
70009;BME280;59542;37.950;-122.338;2023-02-18T05:49:45;101683.88;;;8.50;46.76
70009;BME280;59542;37.950;-122.338;2023-02-18T05:52:11;101679.53;;;8.41;46.81
70009;BME280;59542;37.950;-122.338;2023-02-18T05:54:37;101682.22;;;8.41;46.73
70009;BME280;59542;37.950;-122.338;2023-02-18T05:57:03;101691.22;;;8.24;46.88
70009;BME280;59542;37.950;-122.338;2023-02-18T05:59:29;101691.09;;;7.76;47.53
70009;BME280;59542;37.950;-122.338;2023-02-18T06:01:55;101693.41;;;7.55;47.75
70009;BME280;59542;37.950;-122.338;2023-02-18T06:04:21;101688.59;;;7.58;47.85
70009;BME280;59542;37.950;-122.338;2023-02-18T06:06:47;101697.28;;;7.68;47.78
70009;BME280;59542;37.950;-122.338;2023-02-18T06:09:13;101686.28;;;7.55;48.10
70009;BME280;59542;37.950;-122.338;2023-02-18T06:11:39;101692.91;;;7.59;48.20
70009;BME280;59542;37.950;-122.338;2023-02-18T06:14:04;101692.13;;;7.83;47.51
70009;BME280;59542;37.950;-122.338;2023-02-18T06:16:30;101696.91;;;8.12;46.68
70009;BME280;59542;37.950;-122.338;2023-02-18T06:18:56;101699.75;;;8.03;46.38
70009;BME280;59542;37.950;-122.338;2023-02-18T06:21:23;101694.56;;;7.28;48.86
70009;BME280;59542;37.950;-122.338;2023-02-18T06:23:49;101701.63;;;7.03;49.80
70009;BME280;59542;37.950;-122.338;2023-02-18T06:26:15;101707.31;;;7.00;49.32
70009;BME280;59542;37.950;-122.338;2023-02-18T06:28:40;101701.34;;;6.38;50.67
70009;BME280;59542;37.950;-122.338;2023-02-18T06:31:06;101691.69;;;6.37;50.79
70009;BME280;59542;37.950;-122.338;2023-02-18T06:33:32;101693.66;;;6.60;49.90
70009;BME280;59542;37.950;-122.338;2023-02-18T06:35:59;101695.34;;;6.70;50.01
70009;BME280;59542;37.950;-122.338;2023-02-18T06:38:25;101697.19;;;7.20;48.83
70009;BME280;59542;37.950;-122.338;2023-02-18T06:40:51;101699.84;;;7.11;48.90
70009;BME280;59542;37.950;-122.338;2023-02-18T06:43:18;101698.28;;;6.50;50.50
70009;BME280;59542;37.950;-122.338;2023-02-18T06:45:44;101693.34;;;6.64;49.78
70009;BME280;59542;37.950;-122.338;2023-02-18T06:48:10;101697.66;;;6.65;49.91
70009;BME280;59542;37.950;-122.338;2023-02-18T06:50:36;101700.03;;;6.76;49.25
70009;BME280;59542;37.950;-122.338;2023-02-18T06:53:02;101699.69;;;6.37;49.95
70009;BME280;59542;37.950;-122.338;2023-02-18T06:55:28;101700.84;;;6.34;50.49
70009;BME280;59542;37.950;-122.338;2023-02-18T06:57:54;101697.78;;;6.55;49.93
70009;BME280;59542;37.950;-122.338;2023-02-18T07:00:20;101696.44;;;6.85;49.37
70009;BME280;59542;37.950;-122.338;2023-02-18T07:02:47;101697.06;;;6.79;48.94
70009;BME280;59542;37.950;-122.338;2023-02-18T07:05:12;101697.03;;;6.71;49.47
70009;BME280;59542;37.950;-122.338;2023-02-18T07:07:38;101703.41;;;6.86;48.68
70009;BME280;59542;37.950;-122.338;2023-02-18T07:10:04;101704.06;;;6.88;48.39
70009;BME280;59542;37.950;-122.338;2023-02-18T07:12:30;101698.44;;;6.91;48.64
70009;BME280;59542;37.950;-122.338;2023-02-18T07:14:56;101703.13;;;6.97;48.69
70009;BME280;59542;37.950;-122.338;2023-02-18T07:17:22;101703.53;;;7.27;47.92
70009;BME280;59542;37.950;-122.338;2023-02-18T07:19:48;101703.56;;;7.35;47.50
70009;BME280;59542;37.950;-122.338;2023-02-18T07:22:14;101704.31;;;7.03;48.12
70009;BME280;59542;37.950;-122.338;2023-02-18T07:24:40;101702.81;;;7.00;48.04
70009;BME280;59542;37.950;-122.338;2023-02-18T07:27:06;101709.78;;;7.01;48.02
70009;BME280;59542;37.950;-122.338;2023-02-18T07:29:32;101708.44;;;6.97;48.06
70009;BME280;59542;37.950;-122.338;2023-02-18T07:31:57;101708.31;;;7.07;47.76
70009;BME280;59542;37.950;-122.338;2023-02-18T07:34:23;101709.84;;;7.18;47.77
70009;BME280;59542;37.950;-122.338;2023-02-18T07:36:49;101711.63;;;7.09;48.16
70009;BME280;59542;37.950;-122.338;2023-02-18T07:39:15;101719.44;;;7.10;47.97
70009;BME280;59542;37.950;-122.338;2023-02-18T07:41:45;101722.47;;;7.07;47.89
70009;BME280;59542;37.950;-122.338;2023-02-18T07:44:12;101713.50;;;6.74;49.00
70009;BME280;59542;37.950;-122.338;2023-02-18T07:46:39;101709.09;;;6.57;49.14
70009;BME280;59542;37.950;-122.338;2023-02-18T07:49:05;101713.69;;;6.47;49.77
70009;BME280;59542;37.950;-122.338;2023-02-18T07:51:31;101708.94;;;6.32;50.05
70009;BME280;59542;37.950;-122.338;2023-02-18T07:53:57;101704.25;;;5.82;51.41
70009;BME280;59542;37.950;-122.338;2023-02-18T07:56:22;101708.00;;;6.16;50.96
70009;BME280;59542;37.950;-122.338;2023-02-18T07:58:48;101713.66;;;6.39;50.02
70009;BME280;59542;37.950;-122.338;2023-02-18T08:01:14;101714.97;;;6.69;49.43
70009;BME280;59542;37.950;-122.338;2023-02-18T08:03:40;101716.19;;;6.48;49.57
70009;BME280;59542;37.950;-122.338;2023-02-18T08:06:06;101719.75;;;6.31;50.26
70009;BME280;59542;37.950;-122.338;2023-02-18T08:08:32;101719.31;;;6.44;49.74
70009;BME280;59542;37.950;-122.338;2023-02-18T08:10:59;101722.50;;;6.47;49.60
70009;BME280;59542;37.950;-122.338;2023-02-18T08:13:31;101716.16;;;6.40;49.68
70009;BME280;59542;37.950;-122.338;2023-02-18T08:15:57;101716.84;;;6.76;49.46
70009;BME280;59542;37.950;-122.338;2023-02-18T08:18:23;101719.94;;;6.64;51.31
70009;BME280;59542;37.950;-122.338;2023-02-18T08:20:49;101718.22;;;6.54;53.14
70009;BME280;59542;37.950;-122.338;2023-02-18T08:23:19;101719.66;;;6.41;54.23
70009;BME280;59542;37.950;-122.338;2023-02-18T08:25:46;101725.53;;;6.52;54.13
70009;BME280;59542;37.950;-122.338;2023-02-18T08:28:12;101722.56;;;6.55;54.51
70009;BME280;59542;37.950;-122.338;2023-02-18T08:30:42;101726.47;;;6.43;54.86
70009;BME280;59542;37.950;-122.338;2023-02-18T08:33:09;101731.78;;;6.43;55.02
70009;BME280;59542;37.950;-122.338;2023-02-18T08:35:34;101740.03;;;6.32;55.47
70009;BME280;59542;37.950;-122.338;2023-02-18T08:38:00;101734.47;;;5.99;56.54
70009;BME280;59542;37.950;-122.338;2023-02-18T08:40:26;101730.00;;;6.00;56.16
70009;BME280;59542;37.950;-122.338;2023-02-18T08:42:52;101731.47;;;5.94;56.04
70009;BME280;59542;37.950;-122.338;2023-02-18T08:45:18;101738.25;;;6.15;55.90
70009;BME280;59542;37.950;-122.338;2023-02-18T08:47:44;101737.75;;;5.93;55.93
70009;BME280;59542;37.950;-122.338;2023-02-18T08:50:09;101734.78;;;5.96;55.77
70009;BME280;59542;37.950;-122.338;2023-02-18T08:52:35;101731.69;;;5.83;55.24
70009;BME280;59542;37.950;-122.338;2023-02-18T08:55:02;101735.00;;;5.85;54.46
70009;BME280;59542;37.950;-122.338;2023-02-18T08:57:28;101730.13;;;5.80;54.26
70009;BME280;59542;37.950;-122.338;2023-02-18T08:59:54;101739.56;;;5.75;53.50
70009;BME280;59542;37.950;-122.338;2023-02-18T09:02:20;101738.09;;;5.80;53.39
70009;BME280;59542;37.950;-122.338;2023-02-18T09:04:46;101733.25;;;5.76;53.41
70009;BME280;59542;37.950;-122.338;2023-02-18T09:07:12;101729.31;;;5.80;53.20
70009;BME280;59542;37.950;-122.338;2023-02-18T09:09:38;101731.28;;;5.78;53.05
70009;BME280;59542;37.950;-122.338;2023-02-18T09:12:04;101721.88;;;5.48;53.67
70009;BME280;59542;37.950;-122.338;2023-02-18T09:14:30;101726.19;;;5.49;53.77
70009;BME280;59542;37.950;-122.338;2023-02-18T09:16:56;101722.41;;;5.51;53.70
70009;BME280;59542;37.950;-122.338;2023-02-18T09:19:23;101721.72;;;5.67;53.37
70009;BME280;59542;37.950;-122.338;2023-02-18T09:21:49;101718.59;;;5.54;53.70
70009;BME280;59542;37.950;-122.338;2023-02-18T09:24:18;101727.81;;;5.95;52.73
70009;BME280;59542;37.950;-122.338;2023-02-18T09:26:44;101731.81;;;5.81;52.72
70009;BME280;59542;37.950;-122.338;2023-02-18T09:29:10;101737.28;;;5.80;52.59
70009;BME280;59542;37.950;-122.338;2023-02-18T09:31:36;101728.63;;;5.78;52.92
70009;BME280;59542;37.950;-122.338;2023-02-18T09:34:03;101729.78;;;5.57;53.06
70009;BME280;59542;37.950;-122.338;2023-02-18T09:36:30;101733.31;;;5.48;53.40
70009;BME280;59542;37.950;-122.338;2023-02-18T09:38:56;101731.00;;;5.63;52.88
70009;BME280;59542;37.950;-122.338;2023-02-18T09:41:38;101732.44;;;5.57;53.38
70009;BME280;59542;37.950;-122.338;2023-02-18T09:44:27;101730.16;;;5.45;54.04
70009;BME280;59542;37.950;-122.338;2023-02-18T09:46:58;101731.81;;;5.00;55.54
70009;BME280;59542;37.950;-122.338;2023-02-18T09:49:26;101736.50;;;5.34;54.54
70009;BME280;59542;37.950;-122.338;2023-02-18T09:51:54;101726.63;;;5.26;54.73
70009;BME280;59542;37.950;-122.338;2023-02-18T09:54:20;101730.06;;;5.37;54.24
70009;BME280;59542;37.950;-122.338;2023-02-18T09:56:46;101724.84;;;5.45;54.13
70009;BME280;59542;37.950;-122.338;2023-02-18T09:59:21;101729.06;;;5.38;54.38
70009;BME280;59542;37.950;-122.338;2023-02-18T10:01:50;101737.50;;;5.33;54.56
70009;BME280;59542;37.950;-122.338;2023-02-18T10:04:18;101729.16;;;5.00;55.14
70009;BME280;59542;37.950;-122.338;2023-02-18T10:06:48;101730.53;;;4.40;57.47
70009;BME280;59542;37.950;-122.338;2023-02-18T10:11:41;101722.34;;;4.61;56.77
70009;BME280;59542;37.950;-122.338;2023-02-18T10:14:09;101723.03;;;4.72;56.67
70009;BME280;59542;37.950;-122.338;2023-02-18T10:16:36;101725.09;;;4.32;57.74
70009;BME280;59542;37.950;-122.338;2023-02-18T10:19:11;101724.03;;;4.62;56.75
70009;BME280;59542;37.950;-122.338;2023-02-18T10:21:39;101731.31;;;4.87;55.84
70009;BME280;59542;37.950;-122.338;2023-02-18T10:24:09;101728.03;;;4.66;56.25
70009;BME280;59542;37.950;-122.338;2023-02-18T10:26:37;101719.75;;;4.51;56.89
70009;BME280;59542;37.950;-122.338;2023-02-18T10:29:08;101724.84;;;4.15;57.90
70009;BME280;59542;37.950;-122.338;2023-02-18T10:31:39;101716.66;;;4.56;56.80
70009;BME280;59542;37.950;-122.338;2023-02-18T10:39:54;101709.09;;;5.16;55.05
70009;BME280;59542;37.950;-122.338;2023-02-18T10:45:40;101722.22;;;5.17;54.33
70009;BME280;59542;37.950;-122.338;2023-02-18T10:47:47;101718.56;;;5.00;54.73
70009;BME280;59542;37.950;-122.338;2023-02-18T10:50:26;101717.44;;;4.93;54.89
70009;BME280;59542;37.950;-122.338;2023-02-18T10:52:54;101700.25;;;4.97;55.19
70009;BME280;59542;37.950;-122.338;2023-02-18T10:55:20;101698.06;;;4.93;55.88
70009;BME280;59542;37.950;-122.338;2023-02-18T10:57:58;101698.81;;;4.85;56.26
70009;BME280;59542;37.950;-122.338;2023-02-18T11:00:25;101691.84;;;4.84;55.94
70009;BME280;59542;37.950;-122.338;2023-02-18T11:05:29;101695.56;;;4.91;55.35
70009;BME280;59542;37.950;-122.338;2023-02-18T11:07:56;101699.28;;;4.98;55.19
70009;BME280;59542;37.950;-122.338;2023-02-18T11:12:49;101685.22;;;4.88;55.19
70009;BME280;59542;37.950;-122.338;2023-02-18T11:15:18;101669.84;;;4.92;54.83
70009;BME280;59542;37.950;-122.338;2023-02-18T11:17:45;101675.22;;;4.82;55.40
70009;BME280;59542;37.950;-122.338;2023-02-18T11:22:49;101663.97;;;4.06;58.08
70009;BME280;59542;37.950;-122.338;2023-02-18T11:25:23;101661.47;;;4.32;57.46
70009;BME280;59542;37.950;-122.338;2023-02-18T11:27:56;101659.75;;;4.50;56.61
70009;BME280;59542;37.950;-122.338;2023-02-18T11:30:38;101660.97;;;4.28;57.37
70009;BME280;59542;37.950;-122.338;2023-02-18T11:33:08;101657.81;;;4.42;56.80
70009;BME280;59542;37.950;-122.338;2023-02-18T11:35:34;101663.47;;;4.30;57.29
70009;BME280;59542;37.950;-122.338;2023-02-18T11:38:01;101664.78;;;4.43;56.82
70009;BME280;59542;37.950;-122.338;2023-02-18T11:40:35;101654.25;;;4.34;57.36
70009;BME280;59542;37.950;-122.338;2023-02-18T11:43:02;101651.94;;;4.48;56.63
70009;BME280;59542;37.950;-122.338;2023-02-18T11:45:29;101653.88;;;4.56;56.34
70009;BME280;59542;37.950;-122.338;2023-02-18T11:48:28;101668.78;;;4.85;55.72
70009;BME280;59542;37.950;-122.338;2023-02-18T11:50:51;101674.72;;;4.69;55.94
70009;BME280;59542;37.950;-122.338;2023-02-18T11:53:34;101679.44;;;4.75;55.79
70009;BME280;59542;37.950;-122.338;2023-02-18T11:56:01;101690.88;;;4.48;57.60
70009;BME280;59542;37.950;-122.338;2023-02-18T11:58:30;101693.69;;;4.74;57.70
70009;BME280;59542;37.950;-122.338;2023-02-18T12:01:01;101694.59;;;4.18;60.04
70009;BME280;59542;37.950;-122.338;2023-02-18T12:03:41;101685.53;;;4.58;59.43
70009;BME280;59542;37.950;-122.338;2023-02-18T12:06:13;101702.81;;;4.24;60.66
70009;BME280;59542;37.950;-122.338;2023-02-18T12:08:47;101702.56;;;4.08;61.55
70009;BME280;59542;37.950;-122.338;2023-02-18T12:11:14;101709.41;;;3.91;62.29
70009;BME280;59542;37.950;-122.338;2023-02-18T12:13:51;101709.66;;;4.08;61.46
70009;BME280;59542;37.950;-122.338;2023-02-18T12:19:12;101689.41;;;4.16;60.84
70009;BME280;59542;37.950;-122.338;2023-02-18T12:21:47;101681.75;;;4.23;60.37
70009;BME280;59542;37.950;-122.338;2023-02-18T12:29:51;101687.47;;;4.18;59.72
70009;BME280;59542;37.950;-122.338;2023-02-18T12:32:24;101697.31;;;4.36;58.38
70009;BME280;59542;37.950;-122.338;2023-02-18T12:37:46;101700.75;;;4.09;59.30
70009;BME280;59542;37.950;-122.338;2023-02-18T12:40:28;101695.28;;;4.10;59.10
70009;BME280;59542;37.950;-122.338;2023-02-18T12:45:37;101692.22;;;4.15;58.55
70009;BME280;59542;37.950;-122.338;2023-02-18T12:53:14;101673.16;;;4.02;58.88
70009;BME280;59542;37.950;-122.338;2023-02-18T13:08:58;101677.81;;;3.51;60.04
70009;BME280;59542;37.950;-122.338;2023-02-18T13:11:35;101671.78;;;3.88;58.86
70009;BME280;59542;37.950;-122.338;2023-02-18T13:14:15;101674.16;;;3.81;58.89
70009;BME280;59542;37.950;-122.338;2023-02-18T13:16:44;101674.72;;;3.94;58.97
70009;BME280;59542;37.950;-122.338;2023-02-18T13:19:46;101673.72;;;3.95;58.88
70009;BME280;59542;37.950;-122.338;2023-02-18T13:22:05;101674.16;;;3.81;58.99
70009;BME280;59542;37.950;-122.338;2023-02-18T13:24:38;101665.25;;;3.63;59.65
70009;BME280;59542;37.950;-122.338;2023-02-18T13:29:31;101669.69;;;3.82;58.88
70009;BME280;59542;37.950;-122.338;2023-02-18T13:34:54;101661.63;;;3.64;59.51
70009;BME280;59542;37.950;-122.338;2023-02-18T13:37:46;101665.94;;;3.75;59.43
70009;BME280;59542;37.950;-122.338;2023-02-18T13:40:19;101662.59;;;3.82;59.10
70009;BME280;59542;37.950;-122.338;2023-02-18T13:42:45;101664.97;;;3.85;58.90
70009;BME280;59542;37.950;-122.338;2023-02-18T13:45:23;101654.34;;;3.95;58.51
70009;BME280;59542;37.950;-122.338;2023-02-18T13:47:49;101666.47;;;3.97;58.34
70009;BME280;59542;37.950;-122.338;2023-02-18T13:52:48;101669.41;;;3.94;58.56
70009;BME280;59542;37.950;-122.338;2023-02-18T13:55:17;101669.94;;;3.98;58.07
70009;BME280;59542;37.950;-122.338;2023-02-18T13:57:46;101671.75;;;3.97;58.03
70009;BME280;59542;37.950;-122.338;2023-02-18T14:00:19;101674.72;;;3.94;57.89
70009;BME280;59542;37.950;-122.338;2023-02-18T14:02:56;101676.22;;;4.07;57.58
70009;BME280;59542;37.950;-122.338;2023-02-18T14:05:22;101677.63;;;4.38;58.01
70009;BME280;59542;37.950;-122.338;2023-02-18T14:07:50;101682.34;;;4.17;59.43
70009;BME280;59542;37.950;-122.338;2023-02-18T14:20:57;101688.06;;;3.93;60.85
70009;BME280;59542;37.950;-122.338;2023-02-18T14:31:42;101712.34;;;3.59;63.01
70009;BME280;59542;37.950;-122.338;2023-02-18T14:33:52;101707.59;;;3.24;63.81
70009;BME280;59542;37.950;-122.338;2023-02-18T14:36:35;101708.69;;;3.12;64.82
70009;BME280;59542;37.950;-122.338;2023-02-18T14:39:07;101708.41;;;3.15;64.42